Forside
METAR-TAF:

METAR-TAF

Lufthavne :

Rahim Yar Khan, Pakistan

Breddekreds: 28-23-02N, længdekreds: 70-16-47E, højde: 83 m

METAR: fraværende

Tid: 01:11 (20:11 UTC)

Vejrudsigter

Denne rapport blev lavet for 3 timer og 56 minutter siden, kl. 16:15 UTC
Foreløbig gælder fra 17 på 18 UTC til 18 på 12 UTC
Vind 5 kt fra nord
Sigt: 2000 m
dis
Sandsynlighed 30% :
Midlertidig
fra 18 på 01 UTC til 18 på 05 UTC
Vind kt fra nord
Sigt: 0800 m
Nogle få skyer i en højde af 12000 ft
tåge
Fra 18 på 0700 UTC
Vind 5 kt fra nordøst
Sigt: 3500 m
Nogle få skyer i en højde af 12000 ft
røg

TAF: OPRK 171615Z 1718/1812 36005KT 2000 BR NSC TN05/1801Z TX24/1810Z PROB30 TEMPO 1801/1805 00000KT 0800 FG FEW120 FM180700 05005KT 3500 FU FEW120

Vejrobservationer og prognoser fra mere end 4000 lufthavne (METAR og TAF).

De gule og røde prikker repræsenterer de meteorologiske stationer.

Flyt musen over at se navnet på stationen.

Så klik over at se vejr observationer og prognoser.

At skifte det kort: Klik på de grønne knapper med et sort kors for at zoome ind; på den grønne knap med en bindestreg for at zoome ud; eller på de grønne pile for tilstødende kort.


METAR-TAF: